Time,TemperatureF,DewpointF,PressureIn,WindDirection,WindDirectionDegrees,WindSpeedMPH,WindSpeedGustMPH,Humidity,HourlyPrecipIn,Conditions,Clouds,dailyrainin,SoftwareType,DateUTC
2013-06-15 00:00:00,62.0,57.0,29.76,West,270,17.0,18.0,83,-99.99,,,-99.99,,2013-06-15 04:00:00,
2013-06-15 00:33:00,62.0,57.0,29.76,West,270,17.0,18.0,83,-99.99,,,-99.99,,2013-06-15 04:33:00,
2013-06-15 00:43:00,62.0,57.0,29.76,West,270,17.0,18.0,83,-99.99,,,-99.99,,2013-06-15 04:43:00,
2013-06-15 00:53:00,62.0,57.0,29.76,West,270,17.0,18.0,83,-99.99,,,-99.99,,2013-06-15 04:53:00,
2013-06-15 01:00:00,63.0,56.0,29.78,WNW,290,16.0,17.0,76,-99.99,,,-99.99,,2013-06-15 05:00:00,
2013-06-15 01:33:00,63.0,56.0,29.78,WNW,290,16.0,17.0,76,-99.99,,,-99.99,,2013-06-15 05:33:00,
2013-06-15 01:42:00,63.0,56.0,29.78,WNW,290,16.0,17.0,76,-99.99,,,-99.99,,2013-06-15 05:42:00,
2013-06-15 01:52:00,63.0,56.0,29.78,WNW,290,16.0,17.0,76,-99.99,,,-99.99,,2013-06-15 05:52:00,
2013-06-15 02:00:00,62.0,56.0,29.79,NNW,330,10.0,13.0,78,-99.99,,,-99.99,,2013-06-15 06:00:00,
2013-06-15 02:33:00,62.0,56.0,29.79,NNW,330,10.0,13.0,78,-99.99,,,-99.99,,2013-06-15 06:33:00,
2013-06-15 02:43:00,62.0,56.0,29.79,NNW,330,10.0,13.0,78,-99.99,,,-99.99,,2013-06-15 06:43:00,
2013-06-15 02:52:00,62.0,56.0,29.79,NNW,330,10.0,13.0,78,-99.99,,,-99.99,,2013-06-15 06:52:00,
2013-06-15 04:00:00,62.0,54.0,29.82,NW,310,16.0,17.0,77,-99.99,,,-99.99,,2013-06-15 08:00:00,
2013-06-15 04:33:00,62.0,54.0,29.82,NW,310,16.0,17.0,77,-99.99,,,-99.99,,2013-06-15 08:33:00,
2013-06-15 04:42:00,62.0,54.0,29.82,NW,310,16.0,17.0,77,-99.99,,,-99.99,,2013-06-15 08:42:00,
2013-06-15 04:53:00,62.0,54.0,29.82,NW,310,16.0,17.0,77,-99.99,,,-99.99,,2013-06-15 08:53:00,
2013-06-15 05:00:00,62.0,55.0,29.84,NW,310,12.0,13.0,78,-99.99,,,-99.99,,2013-06-15 09:00:00,
2013-06-15 05:43:00,62.0,55.0,29.84,NW,310,12.0,13.0,78,-99.99,,,-99.99,,2013-06-15 09:43:00,
2013-06-15 05:52:00,62.0,55.0,29.84,NW,310,12.0,13.0,78,-99.99,,,-99.99,,2013-06-15 09:52:00,
2013-06-15 06:00:00,62.0,52.0,29.85,NNW,330,13.0,15.0,70,-99.99,,,-99.99,,2013-06-15 10:00:00,
2013-06-15 06:43:00,62.0,52.0,29.85,NNW,330,13.0,15.0,70,-99.99,,,-99.99,,2013-06-15 10:43:00,
2013-06-15 06:53:00,62.0,52.0,29.85,NNW,330,13.0,15.0,70,-99.99,,,-99.99,,2013-06-15 10:53:00,
2013-06-15 07:00:00,62.0,52.0,29.87,NNW,330,13.0,14.0,68,-99.99,,,-99.99,,2013-06-15 11:00:00,
2013-06-15 07:22:00,62.0,52.0,29.87,NNW,330,13.0,14.0,68,-99.99,,,-99.99,,2013-06-15 11:22:00,
2013-06-15 07:32:00,62.0,52.0,29.87,NNW,330,13.0,14.0,68,-99.99,,,-99.99,,2013-06-15 11:32:00,
2013-06-15 07:43:00,62.0,52.0,29.87,NNW,330,13.0,14.0,68,-99.99,,,-99.99,,2013-06-15 11:43:00,
2013-06-15 07:53:00,62.0,52.0,29.87,NNW,330,13.0,14.0,68,-99.99,,,-99.99,,2013-06-15 11:53:00,
2013-06-15 08:00:00,64.0,48.0,29.88,NNW,330,16.0,18.0,57,-99.99,,,-99.99,,2013-06-15 12:00:00,
2013-06-15 08:43:00,64.0,48.0,29.88,NNW,330,16.0,18.0,57,-99.99,,,-99.99,,2013-06-15 12:43:00,
2013-06-15 08:52:00,64.0,48.0,29.88,NNW,330,16.0,18.0,57,-99.99,,,-99.99,,2013-06-15 12:52:00,
2013-06-15 09:00:00,65.0,48.0,29.91,NNW,330,13.0,14.0,55,-99.99,,,-99.99,,2013-06-15 13:00:00,
2013-06-15 09:43:00,65.0,48.0,29.91,NNW,330,13.0,14.0,55,-99.99,,,-99.99,,2013-06-15 13:43:00,
2013-06-15 09:53:00,65.0,48.0,29.91,NNW,330,13.0,14.0,55,-99.99,,,-99.99,,2013-06-15 13:53:00,
2013-06-15 10:00:00,67.0,46.0,29.93,NW,320,12.0,13.0,47,-99.99,,,-99.99,,2013-06-15 14:00:00,
2013-06-15 10:33:00,67.0,46.0,29.93,NW,320,12.0,13.0,47,-99.99,,,-99.99,,2013-06-15 14:33:00,
2013-06-15 10:43:00,67.0,46.0,29.93,NW,320,12.0,13.0,47,-99.99,,,-99.99,,2013-06-15 14:43:00,
2013-06-15 10:53:00,67.0,46.0,29.93,NW,320,12.0,13.0,47,-99.99,,,-99.99,,2013-06-15 14:53:00,
2013-06-15 12:00:00,69.0,47.0,29.93,WNW,290,5.0,6.0,45,-99.99,,,-99.99,,2013-06-15 16:00:00,
2013-06-15 12:32:00,69.0,47.0,29.93,WNW,290,5.0,6.0,45,-99.99,,,-99.99,,2013-06-15 16:32:00,
2013-06-15 12:43:00,69.0,47.0,29.93,WNW,290,5.0,6.0,45,-99.99,,,-99.99,,2013-06-15 16:43:00,
2013-06-15 12:53:00,69.0,47.0,29.93,WNW,290,5.0,6.0,45,-99.99,,,-99.99,,2013-06-15 16:53:00,
2013-06-15 13:00:00,69.0,45.0,29.93,West,280,7.0,8.0,41,-99.99,,,-99.99,,2013-06-15 17:00:00,
2013-06-15 13:21:00,69.0,45.0,29.93,West,280,7.0,8.0,41,-99.99,,,-99.99,,2013-06-15 17:21:00,
2013-06-15 13:32:00,69.0,45.0,29.93,West,280,7.0,8.0,41,-99.99,,,-99.99,,2013-06-15 17:32:00,
2013-06-15 13:43:00,69.0,45.0,29.93,West,280,7.0,8.0,41,-99.99,,,-99.99,,2013-06-15 17:43:00,
2013-06-15 13:52:00,69.0,45.0,29.93,West,280,7.0,8.0,41,-99.99,,,-99.99,,2013-06-15 17:52:00,
2013-06-15 14:00:00,67.0,51.0,29.93,WSW,240,10.0,12.0,55,-99.99,,,-99.99,,2013-06-15 18:00:00,
2013-06-15 14:32:00,67.0,51.0,29.93,WSW,240,10.0,12.0,55,-99.99,,,-99.99,,2013-06-15 18:32:00,
2013-06-15 14:42:00,67.0,51.0,29.93,WSW,240,10.0,12.0,55,-99.99,,,-99.99,,2013-06-15 18:42:00,
2013-06-15 14:53:00,67.0,51.0,29.93,WSW,240,10.0,12.0,55,-99.99,,,-99.99,,2013-06-15 18:53:00,
2013-06-15 15:00:00,65.0,54.0,29.92,SW,220,16.0,17.0,68,-99.99,,,-99.99,,2013-06-15 19:00:00,
2013-06-15 15:22:00,65.0,54.0,29.92,SW,220,16.0,17.0,68,-99.99,,,-99.99,,2013-06-15 19:22:00,
2013-06-15 15:32:00,65.0,54.0,29.92,SW,220,16.0,17.0,68,-99.99,,,-99.99,,2013-06-15 19:32:00,
2013-06-15 15:43:00,65.0,54.0,29.92,SW,220,16.0,17.0,68,-99.99,,,-99.99,,2013-06-15 19:43:00,
2013-06-15 15:52:00,65.0,54.0,29.92,SW,220,16.0,17.0,68,-99.99,,,-99.99,,2013-06-15 19:52:00,
2013-06-15 16:00:00,65.0,55.0,29.91,SSW,210,13.0,14.0,71,-99.99,,,-99.99,,2013-06-15 20:00:00,
2013-06-15 16:43:00,65.0,55.0,29.91,SSW,210,13.0,14.0,71,-99.99,,,-99.99,,2013-06-15 20:43:00,
2013-06-15 16:52:00,65.0,55.0,29.91,SSW,210,13.0,14.0,71,-99.99,,,-99.99,,2013-06-15 20:52:00,
2013-06-15 18:00:00,64.0,56.0,29.91,SSW,210,10.0,12.0,74,-99.99,,,-99.99,,2013-06-15 22:00:00,
2013-06-15 19:00:00,65.0,56.0,29.91,SW,220,17.0,18.0,74,-99.99,,,-99.99,,2013-06-15 23:00:00,
2013-06-15 19:33:00,65.0,56.0,29.91,SW,220,17.0,18.0,74,-99.99,,,-99.99,,2013-06-15 23:33:00,
2013-06-15 19:42:00,65.0,56.0,29.91,SW,220,17.0,18.0,74,-99.99,,,-99.99,,2013-06-15 23:42:00,
2013-06-15 19:52:00,65.0,56.0,29.91,SW,220,17.0,18.0,74,-99.99,,,-99.99,,2013-06-15 23:52:00,
2013-06-15 21:00:00,64.0,56.0,29.93,SW,230,18.0,20.0,74,-99.99,,,-99.99,,2013-06-16 01:00:00,
2013-06-15 21:32:00,64.0,56.0,29.93,SW,230,18.0,20.0,74,-99.99,,,-99.99,,2013-06-16 01:32:00,
2013-06-15 21:42:00,64.0,56.0,29.93,SW,230,18.0,20.0,74,-99.99,,,-99.99,,2013-06-16 01:42:00,
2013-06-15 21:53:00,64.0,56.0,29.93,SW,230,18.0,20.0,74,-99.99,,,-99.99,,2013-06-16 01:53:00,
2013-06-15 22:00:00,63.0,56.0,29.96,SW,230,17.0,18.0,75,-99.99,,,-99.99,,2013-06-16 02:00:00,
2013-06-15 22:33:00,63.0,56.0,29.96,SW,230,17.0,18.0,75,-99.99,,,-99.99,,2013-06-16 02:33:00,
2013-06-15 22:42:00,63.0,56.0,29.96,SW,230,17.0,18.0,75,-99.99,,,-99.99,,2013-06-16 02:42:00,
2013-06-15 22:53:00,63.0,56.0,29.96,SW,230,17.0,18.0,75,-99.99,,,-99.99,,2013-06-16 02:53:00,
2013-06-15 23:00:00,63.0,55.0,29.96,SW,230,17.0,18.0,73,-99.99,,,-99.99,,2013-06-16 03:00:00,
2013-06-15 23:33:00,63.0,55.0,29.96,SW,230,17.0,18.0,73,-99.99,,,-99.99,,2013-06-16 03:33:00,
2013-06-15 23:43:00,63.0,55.0,29.96,SW,230,17.0,18.0,73,-99.99,,,-99.99,,2013-06-16 03:43:00,
2013-06-15 23:52:00,63.0,55.0,29.96,SW,230,17.0,18.0,73,-99.99,,,-99.99,,2013-06-16 03:52:00,